Free-Da's Run 5K Run/Walk
San Antonio, TX
July 8, 2017
     
Results by iaapweb.com  
Software by ChuckScore  
     
Male 1-14 15-19 20-29 30-39 40-49 50-59 60-99
Female 1-14 15-19 20-29 30-39 40-49 50-59 60-99
Top Male
  Overall Overall State/
Place Name Bib Gun Chip Pace Place by Sex City Country
1 Daum,Jeremy 400 17:40.2 17:38.9 5:41 1 1 San Antonio TX
Go To Top
Top Female
  Overall Overall State/
Place Name Bib Gun Chip Pace Place by Sex City Country
1 Clark,Tanya 393 20:33.3 20:32.8 6:37 7 1 San Antonio TX
Go To Top
Top Master Male
  Overall Overall State/
Place Name Bib Gun Chip Pace Place by Sex City Country
1 Silva,Christopher 106 20:23.2 20:22.3 6:33 6 6
Go To Top
Top Master Female
  Overall Overall State/
Place Name Bib Gun Chip Pace Place by Sex City Country
1 Villarreal,Adriana 82 27:54.8 27:50.3 8:58 48 8 San Antonio TX
Go To Top
1-14 Male
  Overall Overall State/
Place Name Bib Gun Chip Pace Place by Sex City Country
1 Martinez,Jonathan 68 29:00.3 28:55.9 9:19 56 41 San Antonio TX
2 Martinez,Xavier 485 42:21.4 40:42.1 13:06 204 75 San Antonio TX
3 King,Yaniv 456 43:38.5 42:41.2 13:44 220 79 San Antonio TX
4 Amaro,Joaquin 128 46:42.7 45:11.9 14:33 245 84
5 Kroen,Diego 461 47:08.1 46:48.6 15:04 262 86 Converse TX
6 Amaro,Xavier 129 48:38.2 47:06.7 15:10 265 87
7 Walker,Thomas 596 49:56.1 48:57.6 15:45 282 90 San Antonio TX
8 Amaro,Josian 127 54:18.9 52:48.1 17:00 321 96
Go To Top
15-19 Male
  Overall Overall State/
Place Name Bib Gun Chip Pace Place by Sex City Country
1 Lutterlon,Carlos 116 21:17.3 21:15.1 6:50 10 9
2 Gayosso,Gibran 172 24:13.0 24:08.7 7:46 22 21 Katy TX
3 Huff,Angelo 124 25:33.6 25:13.0 8:07 27 26
4 Rueda,Rudy 236 32:52.5 32:06.7 10:20 110 55 San Antonio TX
5 Martinez,Aaron 152 33:17.6 32:55.6 10:36 123 59
Go To Top
20-29 Male
  Overall Overall State/
Place Name Bib Gun Chip Pace Place by Sex City Country
1 Gonzalez,Anthony 214 19:09.8 19:08.7 6:10 2 2
2 Yusckat,Peter 90 19:39.4 19:34.2 6:18 4 4 San Antonio TX
3 Castillo,Timothy 388 22:10.2 22:07.6 7:07 13 12 Helotes TX
4 Rosales,Rickey 561 23:31.1 22:10.9 7:08 14 13 San Antonio TX
5 Cleto,Gerardo 13 23:27.0 23:11.9 7:28 19 18 San Antonio TX
6 Castillo,Joe 387 25:17.1 25:00.8 8:03 26 25 San Antonio TX
7 Gayosso,Edgardo 208 25:42.2 25:40.1 8:16 31 29 Katy TX
8 Mateo,Wilfredo 489 26:43.1 26:32.2 8:32 36 33 San Antonio TX
9 Romero,Peter 161 33:50.3 26:34.5 8:33 37 34 San Antonio TX
10 Moya,Alfonso 131 27:12.1 26:38.1 8:34 38 35
11 Espinoza,Raul 23 29:54.7 29:10.6 9:23 61 43 San Antonio TX
12 Gonzalez,Geo 125 37:18.5 36:19.2 11:41 157 65
13 Roetzel,Robert 554 37:20.2 36:22.4 11:42 158 66 San Antonio TX
14 Lopez,Albert 168 45:16.8 45:09.2 14:32 243 83 San Antonio TX
15 Macias,Jose David 474 49:51.1 48:18.9 15:33 274 88 San Antonio TX
Go To Top
30-39 Male
  Overall Overall State/
Place Name Bib Gun Chip Pace Place by Sex City Country
1 Evans,Jerome 24 19:17.3 19:15.2 6:12 3 3
2 Gutierrez,Daniel 139 21:38.9 21:34.3 6:57 11 10
3 Ramirez,Jonathan 56 22:33.4 22:31.9 7:15 16 15 San Antonio TX
4 Melchor,Israel 250 22:50.0 22:50.0 7:21 18 17 San Antonio TX
5 McGrew,Steve 111 23:53.8 23:42.3 7:38 21 20
6 Flores,Art 25 24:41.4 24:15.8 7:49 24 23 San Antonio TX
7 Leyte,Joseph 118 25:23.4 25:18.1 8:09 29 28
8 Gonzalez,Cesar 147 27:09.6 26:59.5 8:41 40 37
9 Salinas,Marcos 70 27:56.5 27:30.1 8:51 42 39 San Antonio TX
10 Pehl,Christopher 529 29:45.4 29:34.1 9:31 67 45 San Antonio TX
11 Guerra,Omar 437 31:09.4 30:00.3 9:39 75 48 San Antonio TX
12 Schuetz,Steven 570 30:49.5 30:27.3 9:48 81 49 San Antonio TX
13 Lozano,Will 97 31:02.1 30:39.4 9:52 86 51
14 Morales,Javier 117 32:47.5 32:00.5 10:18 108 54
15 Ballentine,Tilman 136 33:15.5 32:46.6 10:33 120 58
16 Luna,Joshua 472 35:21.1 34:30.4 11:06 135 61 San Antonio TX
17 Espinoza,Arturo 103 44:50.1 44:20.2 14:16 233 81
18 Walker,Richard 595 50:11.4 48:25.9 15:35 279 89 San Antonio TX
19 Amaro,Leonardo 2 54:18.4 52:47.3 16:59 320 95 San Antonio TX
20 Alcorta,Daniel 358 57:02.6 56:42.6 18:15 346 100 San Antonio TX
Go To Top
40-49 Male
  Overall Overall State/
Place Name Bib Gun Chip Pace Place by Sex City Country
1 Rosales,Jason 560 20:31.1 20:16.9 6:32 5 5 San Antonio TX
2 Marrufo,Ulises 105 20:36.0 20:35.2 6:38 8 7
3 I˝iguez,Rafael 37 22:13.2 22:12.8 7:09 15 14 San Antonio TX
4 Fredland,John 26 23:26.1 23:25.2 7:32 20 19 San Antonio TX
5 Ortiz,Alfredo 520 24:17.6 24:09.0 7:46 23 22 San Antonio TX
6 Kneeland,Tim 458 26:46.3 26:23.1 8:30 33 31 San Antonio TX
7 Rojas,Guillermo 555 27:26.7 26:24.1 8:30 35 32 Seguin TX
8 Perez,Francisco 52 27:37.4 27:32.4 8:52 44 40 San Antonio TX
9 Guion,Chase 440 29:10.7 29:07.8 9:23 58 42 San Antonio TX
10 Martinez,Daniel 479 30:07.7 29:23.8 9:28 63 44 San Antonio TX
11 Smith,Andrew 100 30:08.8 29:57.4 9:39 72 46
12 Miller,Walter 500 31:51.0 30:39.3 9:52 84 50 San Antonio TX
13 Urdiales,Gary 588 32:27.9 31:25.1 10:07 96 53 San Antonio TX
14 Kramer,Alan 217 33:29.1 32:23.9 10:26 114 56 San Antonio TX
15 Chapman,Robi 12 39:23.7 38:09.6 12:17 174 68 San Antonio TX
16 Saxton-ruiz,Gabriel 73 40:04.5 39:11.3 12:37 186 70 San Antonio TX
17 Zamora,Ricardo 156 41:30.5 41:25.2 13:20 213 76 San Antonio TX
18 Hernandez,Rafael 449 45:43.6 45:26.8 14:38 249 85 San Antonio TX
19 Bielanski,Marc 379 51:13.9 49:30.9 15:56 289 91 Temple TX
20 Lopez,Francisco 468 53:15.0 51:40.4 16:38 312 94 San Antonio TX
21 Perez,Miguel 53 54:41.8 52:51.5 17:01 322 97 San Antonio TX
Go To Top
50-59 Male
  Overall Overall State/
Place Name Bib Gun Chip Pace Place by Sex City Country
1 I˝iguez,Jose 213 20:59.6 20:59.8 6:45 9 8 San Antonio TX
2 Martinez,Raul 44 21:37.4 21:35.8 6:57 12 11 Houston TX
3 Zamora,Anthony 86 24:50.7 24:42.2 7:57 25 24 San Antonio TX
4 Hooper,Donald 451 25:30.1 25:14.9 8:08 28 27 San Antonio TX
5 Rodriguez,Pedro 552 26:24.4 26:10.1 8:25 32 30 San Antonio TX
6 Pirkl,Chris 535 27:10.3 26:50.1 8:38 39 36 San Antonio TX
7 Sullivan,Tom 109 27:45.9 27:02.3 8:42 41 38
8 Toole,Daniel 78 31:46.3 29:59.8 9:39 74 47 San Antonio TX
9 Garcia,Tony 120 33:26.5 32:41.8 10:31 118 57
10 Campbell,Chuck 123 35:06.5 34:48.2 11:12 143 63
11 Ramirez,Fernando 541 35:58.3 35:40.6 11:29 152 64 San Antonio TX
12 Wright,George 600 38:06.4 37:21.5 12:01 164 67
13 Weisert,David 84 39:24.3 38:56.6 12:32 182 69 San Antonio TX
14 Smock,Doug 160 39:47.4 39:14.6 12:38 188 71 San Antonio TX
15 Leonguerrero,Joseph 464 41:03.5 39:44.2 12:47 193 73 Cibolo TX
16 Gonzalez,Adrian 28 41:36.6 40:19.8 12:59 199 74 San Antonio TX
17 Sto.Domingo,Mario 74 41:53.2 41:34.8 13:23 214 77 San Antonio TX
18 Lahti,Donald 462 45:49.1 45:02.0 14:30 240 82 San Antonio TX
19 Aguilar,Louis 122 51:11.0 50:10.0 16:09 293 93
20 Carlon,Dave 385 54:10.2 52:54.6 17:02 323 98 Universal City TX
21 Knight,Wes 460 54:13.8 53:55.7 17:21 330 99 San Antonio TX
Go To Top
60-99 Male
  Overall Overall State/
Place Name Bib Gun Chip Pace Place by Sex City Country
1 McPherson,Douglas 162 22:42.8 22:36.8 7:17 17 16 San Antonio TX
2 Goff,Rick 430 30:56.8 30:51.2 9:56 89 52 San Antonio TX
3 Trotter,Paul 584 34:32.8 34:02.2 10:57 130 60 Corpus Christi TX
4 Dogg,Scotty 407 35:08.7 34:42.2 11:10 140 62 San Antonio TX
5 Canedo,David 210 39:38.1 39:23.3 12:41 191 72 San Antonio TX
6 Ratcliff,Bob 157 42:50.7 42:00.6 13:31 216 78 San Antonio TX
7 Canedo Jr,Alfredo 209 43:48.2 43:31.8 14:01 227 80 San Antonio TX
8 Arismendi,Luis 365 50:08.7 49:51.8 16:03 292 92 San Antonio TX
Go To Top
1-14 Female
  Overall Overall State/
Place Name Bib Gun Chip Pace Place by Sex City Country
1 Mauldin,Gaby 133 29:26.1 28:45.2 9:15 53 13
2 Urdiales,Belicia 586 31:10.6 30:08.9 9:42 77 29 San Antonio TX
3 Sheppard,Madeleine 574 34:28.9 33:58.4 10:56 128 69 Corpus Christi TX
4 Ortiz,Soraya 525 38:17.3 38:06.1 12:16 170 103 San Antonio TX
5 Ortiz,Selma 524 38:17.5 38:06.5 12:16 171 104 San Antonio TX
6 Martinez,Adriana 477 42:36.4 42:32.1 13:41 219 141 San Antiono TX
7 Oliva,Abigail 402 45:10.1 44:48.4 14:25 236 155
8 Lopez,Cyla 170 45:11.4 45:04.3 14:30 242 160 San Antonio TX
9 Campbell,Adele 382 49:33.2 48:20.4 15:34 275 187 Wimberley TX
10 Olson,Kaitlyn 517 51:49.9 50:28.4 16:15 299 206 San Marcos TX
Go To Top
15-19 Female
  Overall Overall State/
Place Name Bib Gun Chip Pace Place by Sex City Country
1 Cosgrove,Lauryn 15 31:23.4 31:20.3 10:05 95 43 San Antonio TX
2 Gayosso,Jennifer 427 32:14.6 32:05.3 10:20 109 55 San Antonio TX
3 Perez,Daisy 167 34:42.9 34:38.3 11:09 138 77 Floresville TX
4 Torres,Mia 581 42:35.0 42:25.4 13:39 218 140 San Antonio TX
5 Hodges,Mia 35 53:47.1 53:05.6 17:05 325 227 Universal City TX
6 Trevino,Madison 582 1:04:47.3 1:03:11.3 20:20 356 256 San Antonio TX
7 Cantu,Luna 384 1:06:34.9 1:04:41.9 20:49 358 258 Mercedes TX
Go To Top
20-29 Female
  Overall Overall State/
Place Name Bib Gun Chip Pace Place by Sex City Country
1 Ramirez,Angela 107 27:31.8 27:30.5 8:51 43 4
2 Bono,Taylor 99 29:15.3 27:42.0 8:55 46 6
3 Yusckat,Catherine 89 28:18.6 27:42.1 8:55 47 7 San Antonio TX
4 Fambrough,Hope 166 35:12.7 27:57.5 9:00 49 9
5 Pena,Mallory 51 29:20.8 29:08.3 9:23 59 17 San Antonio TX
6 Silva,Caitlin 134 30:17.4 29:52.2 9:37 70 25
7 Elizondo,Kristyl 135 30:56.9 30:12.2 9:43 78 30
8 McGrew,Laura 114 30:29.7 30:17.3 9:45 79 31
9 Mata,Delia 486 30:52.2 30:17.3 9:45 80 32 San Antonio TX
10 Castillo,Michelle 10 31:45.0 30:41.2 9:53 87 36 Helotes TX
11 Gutierrez,Diana 446 31:49.1 30:43.4 9:53 88 37 San Antonio TX
12 Lanagan,Hailey 39 32:53.7 32:47.8 10:33 121 63 San Antonio TX
13 Castillo,Jennifer 9 34:52.7 33:48.3 10:53 126 67 Helotes TX
14 Sanchez,Nubia 71 36:10.8 34:41.6 11:10 139 78 San Antonio TX
15 Gonzalez,Larissa 432 37:20.3 36:22.4 11:42 159 93 San Antonio TX
16 Martinez,Marte 43 38:17.3 37:36.5 12:06 167 100 San Antonio TX
17 Lopez,Gabriella 41 39:26.3 38:20.3 12:20 176 108 San Antonio TX
18 Vidal,Lakashia 164 38:50.6 38:29.4 12:23 179 111 Schertz TX
19 Reyes,Gladis 546 41:19.8 40:39.8 13:05 203 129 Houston TX
20 Lopez,Gabby 40 42:22.0 40:42.4 13:06 205 130 San Antonio TX
21 Toole,Cassandra 77 45:50.9 43:51.8 14:07 229 149 San Antonio TX
22 Salinas,Estefania 102 44:49.7 44:19.6 14:16 232 152
23 Mata,Elena 487 45:04.9 44:25.7 14:18 234 153 San Antonio TX
24 Cervantes,Nichole 159 45:58.5 45:21.4 14:36 248 164 San Antonio TX
25 Gavia,Maricruz 426 46:00.1 45:56.9 14:47 255 170 Floresville TX
26 Molina,Bryanna 48 48:36.5 47:23.8 15:15 267 180 San Antonio TX
27 Guerrero,Patty 438 49:03.2 47:57.5 15:26 272 185 San Antonio TX
28 Truesdell,Kelsey 140 52:43.8 51:18.9 16:31 306 213
29 Etter,Alison 412 52:45.3 51:20.4 16:31 308 215 Kerrville TX
30 Valle,Erica 81 53:16.6 51:49.5 16:41 314 220 San Antonio TX
31 Rodriguez,Britany 59 1:10:26.3 1:08:39.7 22:06 363 263 Converse TX
32 Rodriguez,Devin 61 1:11:28.8 1:09:41.0 22:26 365 265 Converse TX
Go To Top
30-39 Female
  Overall Overall State/
Place Name Bib Gun Chip Pace Place by Sex City Country
1 Ruiz,Cassandra 563 25:41.6 25:29.8 8:12 30 2 San Antonio TX
2 Hernandez,Yvette 33 28:00.3 26:23.2 8:30 34 3 San Antonio TX
3 Bowyer,Angela 141 27:43.3 27:39.4 8:54 45 5
4 De Paz,Diana 403 29:15.0 29:05.2 9:22 57 16 San Antonio TX
5 Guion,Lynn 441 30:11.3 29:10.0 9:23 60 18 San Antonio TX
6 Rodriguez,Nancy 551 30:40.8 29:19.0 9:26 62 19 San Antonio TX
7 Balencia,Tifanny 142 29:36.1 29:32.4 9:30 65 21
8 Macias,Cynthia 473 31:05.9 29:35.5 9:31 68 23 San Antonio TX
9 Guerra,Leslie 436 31:09.5 30:01.7 9:40 76 28 San Antonio TX
10 Hernandez,Susana 32 30:45.0 30:31.2 9:49 82 33 San Antonio TX
11 Sharnsky,Brittany 572 30:57.4 30:39.1 9:52 83 34 San Antonio TX
12 Lozano,Laura 471 31:01.8 30:39.3 9:52 85 35 San Antonio TX
13 Deleon-garcia,Evelyn 20 31:56.0 30:53.7 9:57 90 38 San Antonio TX
14 De Hoyos,Chelsea 401 31:49.7 31:14.5 10:03 93 41 San Antonio TX
15 Rodriguez,Rosalie 553 31:25.0 31:20.1 10:05 94 42 San Antonio TX
16 Castoreno,Nora 153 31:57.0 31:37.4 10:11 98 45
17 Cerna,Veronica 390 32:55.5 31:43.7 10:13 99 46 San Antonio TX
18 Gluszko,Jessica 110 32:21.0 31:44.2 10:13 100 47
19 Pehl,Jacquelyn 530 32:09.9 31:57.6 10:17 107 54 San Antonio TX
20 Llamas,Rochelle 150 33:58.6 32:18.0 10:24 112 57
21 Salas,Laura 67 33:34.7 32:19.9 10:24 113 58 San Antonio TX
22 Ortega,Ashley 519 32:30.6 32:28.7 10:27 115 59 San Antonio TX
23 Davila,Cristina 17 33:01.1 32:42.4 10:32 119 62 San Antonio TX
24 Ojeda,Jessica 514 34:10.9 32:49.2 10:34 122 64 San Antonio TX
25 Zarate,Christina 91 33:49.1 33:06.3 10:39 125 66 Austin TX
26 Valdes,Nancy 590 34:05.6 33:51.5 10:54 127 68 San Antonio TX
27 Sanchez,Darlene 565 34:36.6 34:01.7 10:57 129 70 San Antonio TX
28 Ramos,Marlene 544 34:35.2 34:18.9 11:03 133 73 San Antonio TX
29 Mendez,Norma 497 35:44.1 35:03.2 11:17 146 83 San Antnio TX
30 Elliotte,Ademola 149 36:25.3 35:23.9 11:24 149 86
31 Martinez,Maria L. 42 35:46.5 35:37.2 11:28 151 88 Floresville TX
32 Hernandez,Amy 144 36:27.0 35:50.8 11:32 153 89
33 Gutierrez,Celia 444 37:10.5 35:53.1 11:33 154 90 San Antonio TX
34 Nieto,Vanessa 513 36:33.0 36:00.3 11:35 155 91 San Antonio TX
35 Santamaria,China 567 36:21.7 36:09.4 11:38 156 92 Converse TX
36 Morado,Myra 509 37:04.7 36:43.2 11:49 161 95 San Antonio TX
37 Acevedo,Eymi 1 36:52.1 36:44.0 11:49 162 96 Lytle TX
38 Camacho,Montserrat 381 38:53.4 37:11.2 11:58 163 97 San Antonio TX
39 Rodriguez Garcia,Nadia 549 38:55.2 37:45.1 12:09 168 101 San Antonio TX
40 Puente,Mary 539 38:35.9 38:04.1 12:15 169 102 San Antonio TX
41 Garcia,Carolina 420 39:26.5 38:20.7 12:21 177 109 San Antonio TX
42 Sauceda,Maria 72 38:42.2 38:24.9 12:22 178 110 Mission TX
43 Moreno,Jaclyn 148 39:42.8 39:08.5 12:36 184 115
44 Romo,Beatriz 63 40:04.5 39:10.0 12:36 185 116 San Antonio TX
45 Ruiz,Christine 65 40:37.5 39:13.3 12:37 187 117 San Antonio TX
46 Blanco,Anika 108 39:50.2 39:22.2 12:40 190 119
47 Lara,Angelica 146 39:46.2 39:37.4 12:45 192 120
48 Porras,Rosa 537 41:27.5 40:01.6 12:53 196 123 San Antonio TX
49 Dehoyos,Jacqueline 404 40:51.0 40:12.6 12:57 197 124 San Antonio TX
50 Garcia,Marisa 423 41:47.4 40:31.9 13:03 202 128 San Antonio TX
51 Singleterry,Isela 576 41:11.5 40:44.7 13:07 206 131 Alamo TX
52 Avendano,Bianca 370 40:57.0 40:47.5 13:08 208 133 San Antonio TX
53 Mateo,Karen 488 41:21.4 41:09.3 13:15 209 134 San Antonio TX
54 Pett,Sandra 534 42:50.2 41:21.1 13:19 212 137 San Antonio TX
55 Walker,Trisha 597 43:39.3 42:41.3 13:44 221 142 San Antonio TX
56 SAenz,Vianney 121 43:43.5 42:42.4 13:45 222 143
57 Smith,Lanette 101 44:42.1 43:21.3 13:57 225 146
58 Espinoza,Aimara 104 44:12.4 43:44.1 14:05 228 148
59 Ortega,Dalia 145 44:45.4 44:16.2 14:15 231 151
60 Garcia,Dora 421 46:19.5 44:58.9 14:29 238 157 San Antonio TX
61 Saenz,Bonnie 66 46:47.0 45:16.3 14:34 246 162 San Antonio TX
62 Longoria,Elizabeth 467 45:50.2 45:17.5 14:35 247 163 San Antonio TX
63 Salinas,Lori 69 46:06.8 45:41.0 14:42 251 166 San Antonio TX
64 Sheppard,Chiquita 573 46:50.1 45:53.6 14:46 252 167 San Antonio TX
65 Oviedo-saldana,Maricruz 528 46:00.5 45:57.9 14:48 256 171 Floresville TX
66 Cantu,Sarah 8 46:40.1 46:33.1 14:59 259 174 San Antonio TX
67 Elliott,Sara 410 47:50.4 46:40.6 15:01 261 176 Fair Oaks Ranch TX
68 Mendez,Kimberly 496 48:55.3 47:00.0 15:08 264 178 Mercedes TX
69 Guajardo,Roxanne 31 48:32.7 47:37.3 15:20 269 182 San Antonio TX
70 Aleman,Rozio 360 48:47.3 48:13.8 15:31 273 186 San Antonio TX
71 Baltazar,Mayra 371 49:40.1 48:24.7 15:35 277 189 San Antonio TX
72 Gocnikova,Alena 429 50:14.4 48:25.6 15:35 278 190 San Antonio TX
73 Cortez,Diona 396 49:54.2 48:57.9 15:46 283 193 San Antonio TX
74 Palacios,Julia 113 50:42.3 49:00.4 15:46 285 195
75 Derderian,Bryanna 405 51:06.5 49:20.7 15:53 286 196 San Antonio TX
76 Rodriguez,Denise 60 50:29.7 49:21.2 15:53 287 197 San Antonio TX
77 De Hoyos,Jessica 216 50:49.7 49:35.6 15:58 290 199 San Antonio TX
78 Kilgore,Mikki 455 50:14.0 50:14.0 16:10 295 202 San Antonio TX
79 Chavez,Beyra 392 51:37.0 50:26.2 16:14 297 204 San Antonio TX
80 Peterson,Jaimie 532 52:44.2 51:20.4 16:31 307 214 Hut TX
81 Mendoza,Alex 499 54:04.2 52:38.5 16:57 318 224 San Antonio TX
82 Ortiz,Jasmin 521 56:05.9 53:46.6 17:18 328 230 Mercedes TX
83 Groven,Maxanne 434 55:43.4 54:08.9 17:26 332 233 San Antonio TX
84 Romero,Toni 557 55:15.1 54:45.9 17:38 335 236 San Antonio TX
85 Simmons,Katrina 575 56:38.0 56:06.1 18:03 341 242 San Antonio TX
86 Toole,Alicia 76 58:09.7 56:07.1 18:04 342 243 San Antonio TX
87 Alcorta,Denyce 359 57:02.6 56:41.8 18:15 345 246 San Antonio TX
88 Rodriguez,Belen 58 58:04.3 56:55.7 18:19 347 247 San Antonio TX
89 Basurto,Michelle 374 58:21.8 57:25.6 18:29 348 248 San Antonio TX
90 Huerta,Nayomi 453 59:51.8 59:26.0 19:08 352 252 San Antonio TX
91 Crawford,Jessica 16 1:03:30.0 1:01:46.6 19:53 355 255 Jbsa Lackland TX
92 Medina,Mandy 491 1:06:16.1 1:05:21.3 21:02 362 262 San Antonio TX
93 Victorino,Gina 593 1:14:06.7 1:14:06.7 23:51 366 266 San Antonio TX
Go To Top
40-49 Female
  Overall Overall State/
Place Name Bib Gun Chip Pace Place by Sex City Country
1 Mauldin,Martina 98 29:23.0 28:11.8 9:05 50 10
2 Morgan,Maria 511 28:33.4 28:26.0 9:09 52 12 San Antonio TX
3 Fernandez,Trini 414 29:43.3 29:30.1 9:30 64 20 San Antonio TX
4 Martinez,Samantha 45 29:51.1 29:33.1 9:31 66 22
5 Martinez,Melissa 482 30:11.8 29:51.7 9:37 69 24 San Antonio TX
6 Cantu,Dolores 7 29:57.8 29:53.8 9:37 71 26 San Antonio TX
7 Arismendi,Natascha 366 30:13.8 29:58.1 9:39 73 27 San Antonio TX
8 Morales,Sahrei 49 31:15.1 30:58.0 9:58 91 39 San Antonio TX
9 Zavala,Priscilla 94 31:21.7 30:59.5 9:58 92 40 San Antonio TX
10 Fanning,Lori 413 31:52.7 31:29.7 10:08 97 44 San Antonio TX
11 Ortiz,Monica 523 32:27.4 31:47.8 10:14 101 48 Edinburg TX
12 Rodriguez,Diana 62 32:28.1 31:47.8 10:14 102 49 San Juan TX
13 Barta-Wisl,Heather 212 32:31.1 31:53.7 10:16 103 50 San Antonio TX
14 Rosales,Blanca 558 32:31.0 31:54.6 10:16 104 51 San Antonio TX
15 Altwein,Alexandra 362 32:20.1 31:55.1 10:16 105 52 San Antonio TX
16 Reyes,Judith 158 33:00.0 31:56.9 10:17 106 53 Helotes TX
17 Castro,Valeria 389 34:03.7 32:39.8 10:31 117 61 San Antonio TX
18 Kneeland,Angie 457 33:28.7 33:03.1 10:38 124 65 San Antonio TX
19 Rudy,Mary 165 34:08.8 34:06.2 10:59 131 71 San Antonio TX
20 Johnson,Patricia 38 35:19.4 34:12.3 11:01 132 72 San Antonio TX
21 Selsor,Corrina 171 35:08.2 34:27.0 11:05 134 74 Austin TX
22 Estrada,Roberta 411 35:10.4 34:55.7 11:15 145 82 San Antonio TX
23 Martinez,Stephanie 484 35:36.9 35:21.0 11:23 148 85 San Antonio TX
24 Barrera,Rosalinda 3 35:46.3 35:37.0 11:28 150 87 Floresville TX
25 Vaello,Katie 589 36:30.8 36:24.5 11:43 160 94 San Antonio TX
26 Castro,Renzi 11 39:02.1 37:28.2 12:04 165 98 San Antonio TX
27 Ortiz,Libni 522 38:17.6 38:06.6 12:16 172 105 San Antonio TX
28 Prevost,Lara 55 38:18.2 38:11.9 12:18 175 107 San Antonio TX
29 Jasso,Delia 151 39:58.7 38:39.6 12:27 180 112
30 Apolinar,Sandra 364 39:20.1 38:45.5 12:28 181 113 San Antonio TX
31 Weisert,Lisa 85 39:24.2 38:56.8 12:32 183 114 San Antonio TX
32 Martinez,Deeanna 480 40:36.9 39:54.0 12:51 194 121 San Antonio TX
33 Becerra,Jennifer 375 40:26.6 39:58.8 12:52 195 122 San Antonio TX
34 Berrones,Alejandra 119 41:12.8 40:26.4 13:01 200 126
35 Garza,Elisa 425 40:32.9 40:31.2 13:03 201 127 Floresville TX
36 Reza,Rhonda 547 40:57.2 40:46.6 13:07 207 132 San Antonio TX
37 Mendez,Stacie 498 43:10.2 41:17.4 13:17 211 136 Mercedes TX
38 Vasquez,Carmen 115 43:57.1 43:03.3 13:51 223 144
39 Ramos,Corina 57 43:29.0 43:21.9 13:57 226 147 San Antonio TX
40 Watson,Deb 599 44:14.6 43:52.8 14:07 230 150 San Antonio TX
41 Lopez,Lori 469 46:24.1 44:44.7 14:24 235 154 San Antonio TX
42 Vargas,Angelique 591 46:33.1 44:52.0 14:26 237 156 San Antonio TX
43 Saenz,Martha 564 46:10.3 45:03.5 14:30 241 159 San Antonio TX
44 Urdiales,Christine 587 46:34.7 45:32.9 14:40 250 165 San Antonio TX
45 Menard,Angie 494 47:22.0 45:53.8 14:46 253 168 San Antonio TX
46 Bielanski,Gina 378 47:32.8 45:55.9 14:47 254 169 Temple TX
47 Cosgrove,Cynthia 397 46:08.8 46:05.5 14:50 257 172 San Antonio TX
48 Zavala,Sanjuanita 95 47:20.3 46:31.3 14:58 258 173 Austin TX
49 De Leon,Esperanza 18 47:02.9 46:54.8 15:06 263 177 San Antonio TX
50 Harris,Rosa 130 48:18.2 47:32.4 15:18 268 181
51 Stowe,Rachel 578 48:34.8 47:38.2 15:20 270 183 San Antonio TX
52 Dromgoole,Emma 408 49:21.9 47:49.6 15:24 271 184 San Antonio TX
53 Limon,Lexia 466 49:34.1 48:21.4 15:34 276 188 San Antonio TX
54 Martinez,Ruby 483 48:47.5 48:43.5 15:41 281 192 San Antiono TX
55 Fernandez,Gina 163 51:33.1 50:21.9 16:13 296 203 San Antonio TX
56 Valadez,Margie 80 50:58.0 50:27.0 16:14 298 205 San Antonio TX
57 Rueda,Laura 562 52:27.8 51:35.7 16:36 310 217 San Antonio TX
58 Lopez,Vivian 470 53:14.7 51:39.9 16:38 311 218 San Antonio TX
59 De Los Santos,Luci 19 52:21.3 51:43.4 16:39 313 219 San Antonio TX
60 Velazquez,Rosalinda 137 52:25.4 52:17.5 16:50 315 221
61 Perez,Lisa 531 54:34.8 52:44.6 16:59 319 225 San Antonio TX
62 Hodges,Isabel 34 53:49.5 53:06.9 17:06 326 228 Universal City TX
63 Rangel,Gloria 545 55:03.0 53:36.2 17:15 327 229 Austin TX
64 Knight,Karen 459 54:12.8 53:53.4 17:21 329 231 San Antonio TX
65 Seeker,Sally 571 55:45.0 54:28.7 17:32 333 234 San Antonio TX
66 Crane,Carrie 399 55:13.3 54:48.2 17:38 336 237 Laverna TX
67 Vasquez,Michelle 592 56:50.0 55:09.3 17:45 337 238 San Antonio TX
68 Benavides,Raquel 377 55:57.3 55:42.4 17:56 338 239 San Antonio TX
69 Olson,Deborah 516 57:24.8 56:03.0 18:02 340 241 San Marcos TX
70 Keller,Heidi 454 56:37.7 56:07.2 18:04 343 244 San Antonio TX
71 Mendez,Jennifer 495 1:00:33.3 58:40.9 18:53 351 251 Mercedes TX
72 Kramer,Agela 218 1:03:29.6 1:01:45.3 19:53 354 254 San Antonio TX
73 Trevino,Rachel 583 1:04:47.8 1:03:11.7 20:20 357 257 San Antonio TX
74 Guerrero,Tina 439 1:07:01.9 1:05:07.0 20:58 359 259 San Antonio TX
75 Boenig,Amanda 380 1:07:02.9 1:05:08.4 20:58 360 260 San Antonio TX
76 Medina,Patricia 492 1:05:57.8 1:05:13.6 21:00 361 261 Buda TX
77 Hoenscheidt,Tanja 36 1:10:48.2 1:09:00.9 22:13 364 264 Converse TX
Go To Top
50-59 Female
  Overall Overall State/
Place Name Bib Gun Chip Pace Place by Sex City Country
1 Codd,Grace 14 28:16.2 28:12.9 9:05 51 11 San Antonio TX
2 Pirkl,Tia 536 29:06.9 28:47.5 9:16 55 15 San Antonio TX
3 Gil,Caroline 428 33:00.4 32:09.5 10:21 111 56 San Antonio TX
4 Elling,Sandra 409 33:13.0 32:39.0 10:31 116 60 Helotes TX
5 Martinez,San Juana 481 34:57.4 34:34.2 11:08 137 76
6 Perez,Theresa 54 34:53.0 34:42.6 11:10 141 79 San Antonio TX
7 Misangyi,Minka 502 35:57.7 34:43.1 11:10 142 80 San Antonio TX
8 Ewing,Lorie B 154 35:53.1 34:55.2 11:14 144 81 San Antonio TX
9 Grant,Kelli 29 40:48.5 39:14.9 12:38 189 118 San Antonio TX
10 Galindo,Dolores 417 41:07.6 40:15.8 12:58 198 125 San Antonio TX
11 Morales,Sandra 510 42:33.6 41:55.3 13:30 215 138 San Antonio TX
12 Allen,Lori 361 42:43.3 42:18.4 13:37 217 139 San Antonio TX
13 Lahti,Julie 463 45:47.8 45:00.3 14:29 239 158 San Antonio TX
14 Fuentes,Antonia 169 45:16.9 45:09.5 14:32 244 161 San Antonio TX
15 Bedoy,Patricia 4 47:28.1 46:33.6 14:59 260 175 San Antonio TX
16 Trotter,Suzanne 585 47:49.7 47:18.5 15:14 266 179 Corpus Christi TX
17 Molina,Cordy 504 49:43.1 48:31.2 15:37 280 191 San Antonio TX
18 Olsen,Julie 515 51:17.3 49:27.3 15:55 288 198 San Antonio TX
19 Monroe,Lily 505 50:36.5 49:47.8 16:02 291 200 San Antonio TX
20 Bass,Ruth 373 51:30.6 50:50.9 16:22 300 207 San Antonio TX
21 Diaz,Jenise 406 52:25.1 51:00.1 16:25 302 209 San Antonio TX
22 Gamboa,Patricia 419 52:40.9 51:16.0 16:30 305 212 San Antonio TX
23 Hudson,Carolyn 452 52:43.4 51:29.9 16:35 309 216 San Antonio TX
24 Stiles,Irene 577 52:42.2 52:29.0 16:54 316 222 San Antonio TX
25 Olvera,Denora 518 52:42.6 52:29.1 16:54 317 223 San Antonio TX
26 Carlon,Joanne 386 54:15.3 52:57.4 17:03 324 226 Universal City TX
27 Zarate,Margaret 92 56:48.1 55:54.4 18:00 339 240 San Marcos TX
28 Delacruz,Ophie 132 57:56.2 56:27.6 18:10 344 245
29 Carlin,Margaret 143 59:31.4 58:03.2 18:41 349 249
30 Wilson,Linda 88 59:31.4 58:03.3 18:41 350 250 Kingsville TX
Go To Top
60-99 Female
  Overall Overall State/
Place Name Bib Gun Chip Pace Place by Sex City Country
1 Beck,Bernadette 376 28:47.8 28:45.6 9:15 54 14 San Antonio TX
2 Warren,Mobi 83 35:00.7 34:33.8 11:07 136 75 San Antonio TX
3 Salinas,Veronica 155 35:32.4 35:08.1 11:19 147 84 San Antonio TX
4 Montalvo,Vivian 506 37:53.6 37:29.5 12:04 166 99 San Antonio TX
5 Rosales,Isabel 559 38:19.2 38:08.3 12:17 173 106 San Antonio TX
6 Moczygemba,Teresa 47 41:49.7 41:17.1 13:17 210 135 San Antonio TX
7 Otero,Elizabeth 526 44:18.6 43:20.8 13:57 224 145 San Antonio TX
8 Mooney,Theresa 507 50:15.7 48:59.5 15:46 284 194 Austin TX
9 Baltutis,Carol 372 51:31.5 50:12.9 16:10 294 201 San Antonio TX
10 Guajardo,Rachel 30 51:51.1 50:55.4 16:23 301 208 San Antonio TX
11 Medina,Teresa 493 51:50.4 51:01.0 16:25 303 210 Kyle TX
12 Hitt,Kathy 450 52:32.6 51:15.3 16:30 304 211 Universal City TX
13 Ramirez,Maria 543 54:46.4 54:01.8 17:23 331 232 San Antonio TX
14 Osborne,Rose 50 55:45.0 54:29.0 17:32 334 235 San Antonio
15 Romero,Loretta 556 1:02:02.6 1:00:11.1 19:22 353 253 San Antonio TX